Time;durP1;ratioP1;P1;durP2;ratioP2;P2;SDS_P1;SDS_P2;PMS_P1;PMS_P2;Temp;Humidity;BMP_temperature;BMP_pressure;BME280_temperature;BME280_humidity;BME280_pressure;Samples;Min_cycle;Max_cycle;Signal;HPM_P1;HPM_P2
2022/01/28 00:05:01;;;;;;;22.60;4.95;;;5.60;73.80;;;;;;5078592;28;20059;-82
2022/01/28 00:07:26;;;;;;;19.08;4.20;;;5.60;73.80;;;;;;5062623;28;20057;-82
2022/01/28 00:09:52;;;;;;;19.75;4.70;;;5.60;73.70;;;;;;5074281;28;20273;-83
2022/01/28 00:12:18;;;;;;;17.10;4.35;;;5.50;73.70;;;;;;5056609;28;20067;-83
2022/01/28 00:38:50;;;;;;;25.25;5.43;;;5.40;73.50;;;;;;5068928;28;20100;-83
2022/01/28 00:41:16;;;;;;;21.48;5.75;;;5.40;73.40;;;;;;5050628;28;20048;-83
2022/01/28 00:43:41;;;;;;;36.47;7.13;;;5.40;73.40;;;;;;5056725;28;20036;-83
2022/01/28 00:46:08;;;;;;;20.85;5.07;;;5.40;73.40;;;;;;5075632;28;20032;-82
2022/01/28 00:48:33;;;;;;;30.27;5.55;;;5.40;73.30;;;;;;5075136;28;20048;-83
2022/01/28 00:50:59;;;;;;;25.90;5.65;;;5.40;73.30;;;;;;5054603;28;20064;-83
2022/01/28 00:53:25;;;;;;;30.08;6.15;;;5.40;73.30;;;;;;5056093;28;20140;-82
2022/01/28 00:55:54;;;;;;;21.27;4.78;;;5.50;73.80;;;;;;5074024;28;20397;-83
2022/01/28 00:58:23;;;;;;;20.20;4.35;;;5.40;73.30;;;;;;5073979;28;20056;-83
2022/01/28 01:00:48;;;;;;;20.88;4.63;;;5.40;73.30;;;;;;5069875;28;20143;-82
2022/01/28 01:03:14;;;;;;;22.55;3.90;;;5.50;73.30;;;;;;5057565;28;20143;-82
2022/01/28 01:05:40;;;;;;;24.85;3.60;;;5.40;73.20;;;;;;5062752;28;20455;-82
2022/01/28 01:08:06;;;;;;;25.23;4.25;;;5.40;73.30;;;;;;5091979;28;20517;-83
2022/01/28 01:10:33;;;;;;;24.70;5.43;;;5.40;73.40;;;;;;5072596;28;20181;-82
2022/01/28 01:12:59;;;;;;;29.20;6.07;;;5.40;73.40;;;;;;5052255;28;20173;-82
2022/01/28 01:15:31;;;;;;;25.08;5.78;;;5.40;73.50;;;;;;5038657;28;20043;-82
2022/01/28 01:18:08;;;;;;;30.02;4.43;;;5.40;73.50;;;;;;5073352;28;20511;-84
2022/01/28 01:25:38;;;;;;;23.67;4.20;;;5.40;73.60;;;;;;5055497;28;20052;-82
2022/01/28 01:28:04;;;;;;;23.13;3.47;;;5.40;73.50;;;;;;5073084;28;20454;-82
2022/01/28 01:30:33;;;;;;;21.98;4.05;;;5.40;73.50;;;;;;5074379;28;20074;-83
2022/01/28 01:32:59;;;;;;;21.58;3.50;;;5.40;73.50;;;;;;5047502;28;20128;-83
2022/01/28 01:35:24;;;;;;;23.50;4.47;;;5.40;73.40;;;;;;5073216;28;20099;-83
2022/01/28 01:37:50;;;;;;;28.25;4.88;;;5.40;73.40;;;;;;5055687;28;20055;-81
2022/01/28 01:40:25;;;;;;;22.40;3.55;;;5.40;73.40;;;;;;5055936;28;20394;-83
2022/01/28 01:43:04;;;;;;;;;;;5.40;73.40;;;;;;5069821;28;20055;-83
2022/01/28 01:53:27;;;;;;;12.27;3.17;;;5.40;73.60;;;;;;5037830;28;20007;-83
2022/01/28 01:55:53;;;;;;;25.35;6.25;;;5.40;73.70;;;;;;5082498;28;20123;-82
2022/01/28 01:58:30;;;;;;;24.73;5.40;;;5.30;73.70;;;;;;5075246;28;20055;-82
2022/01/28 02:00:57;;;;;;;23.90;5.13;;;5.40;73.80;;;;;;5080877;28;20089;-82
2022/01/28 02:03:23;;;;;;;20.08;4.13;;;5.40;73.80;;;;;;5079266;28;20065;-83
2022/01/28 02:05:49;;;;;;;16.73;4.15;;;5.40;73.80;;;;;;5073482;28;20070;-83
2022/01/28 02:08:14;;;;;;;21.92;3.90;;;5.30;73.60;;;;;;5075499;28;20452;-82
2022/01/28 02:10:40;;;;;;;19.17;4.05;;;5.50;73.60;;;;;;5076128;28;20135;-83
2022/01/28 02:13:06;;;;;;;18.25;3.17;;;5.40;73.50;;;;;;5077685;28;20059;-82
2022/01/28 02:15:31;;;;;;;17.35;3.85;;;5.40;73.40;;;;;;5057899;28;20037;-82
2022/01/28 02:17:59;;;;;;;17.90;4.00;;;5.40;73.30;;;;;;5076657;28;20455;-82
2022/01/28 02:20:34;;;;;;;18.35;3.58;;;5.40;73.20;;;;;;5076356;28;20051;-83
2022/01/28 02:23:00;;;;;;;19.38;4.15;;;5.40;73.10;;;;;;5081788;28;20051;-82
2022/01/28 02:25:28;;;;;;;16.38;3.53;;;5.40;73.10;;;;;;5072384;28;20044;-81
2022/01/28 02:27:57;;;;;;;24.15;4.35;;;5.30;73.10;;;;;;5074647;28;20049;-83
2022/01/28 02:30:22;;;;;;;20.48;3.63;;;5.40;73.10;;;;;;5076674;28;20032;-82
2022/01/28 02:32:50;;;;;;;18.48;3.00;;;5.30;73.10;;;;;;5058292;28;20045;-83
2022/01/28 02:35:16;;;;;;;23.20;3.92;;;5.30;73.20;;;;;;5076376;28;20051;-82
2022/01/28 02:37:42;;;;;;;17.67;3.28;;;5.30;73.70;;;;;;5072104;28;20539;-82
2022/01/28 02:40:08;;;;;;;16.67;3.42;;;5.30;73.40;;;;;;5076240;28;20131;-83
2022/01/28 02:42:51;;;;;;;25.58;4.43;;;5.30;73.60;;;;;;5087505;28;20047;-82
2022/01/28 02:45:26;;;;;;;17.20;3.67;;;5.30;73.60;;;;;;5071441;28;20113;-82
2022/01/28 02:47:57;;;;;;;19.88;3.25;;;5.30;73.90;;;;;;5081430;28;20045;-82
2022/01/28 02:50:26;;;;;;;14.95;3.30;;;5.30;74.00;;;;;;5054226;28;20087;-82
2022/01/28 02:53:02;;;;;;;17.73;3.42;;;5.30;74.10;;;;;;5063319;28;20048;-82
2022/01/28 02:55:30;;;;;;;19.08;3.55;;;5.40;74.30;;;;;;5072383;28;20127;-82
2022/01/28 02:58:14;;;;;;;18.83;3.47;;;5.40;74.50;;;;;;5071959;28;20056;-82
2022/01/28 03:00:40;;;;;;;18.45;3.15;;;5.40;74.60;;;;;;5075744;28;20092;-82
2022/01/28 03:03:07;;;;;;;17.85;3.40;;;5.40;74.70;;;;;;5057762;28;20047;-82
2022/01/28 03:05:34;;;;;;;17.05;3.53;;;5.40;74.80;;;;;;5076494;28;20407;-82
2022/01/28 03:08:03;;;;;;;17.80;3.45;;;5.40;74.80;;;;;;5074137;28;20401;-82
2022/01/28 03:10:41;;;;;;;17.02;3.20;;;5.50;75.00;;;;;;5073729;28;20056;-81
2022/01/28 03:15:33;;;;;;;20.65;3.15;;;5.50;74.90;;;;;;5080701;28;20098;-81
2022/01/28 03:20:56;;;;;;;16.20;3.70;;;5.50;74.80;;;;;;5073104;28;20060;-82
2022/01/28 03:23:22;;;;;;;20.50;3.53;;;5.50;74.70;;;;;;5057741;28;20052;-82
2022/01/28 03:25:48;;;;;;;14.68;3.55;;;5.50;74.70;;;;;;5057128;28;20384;-82
2022/01/28 03:28:16;;;;;;;12.10;2.80;;;5.50;74.50;;;;;;5057656;28;20048;-82
2022/01/28 03:30:41;;;;;;;20.58;3.30;;;5.60;74.40;;;;;;5058868;28;20475;-82
2022/01/28 03:33:07;;;;;;;16.60;3.38;;;5.50;74.20;;;;;;5075807;28;20044;-82
2022/01/28 03:35:35;;;;;;;16.95;3.05;;;5.60;74.10;;;;;;5070643;28;20044;-81
2022/01/28 03:38:02;;;;;;;14.65;3.17;;;5.60;74.00;;;;;;5088533;28;20085;-80
2022/01/28 03:40:33;;;;;;;17.00;4.15;;;5.60;73.80;;;;;;5109556;28;20029;-81
2022/01/28 03:42:59;;;;;;;14.05;2.90;;;5.60;73.70;;;;;;5082285;28;20049;-82
2022/01/28 03:45:24;;;;;;;16.17;3.28;;;5.60;73.60;;;;;;5065676;28;20081;-82
2022/01/28 03:47:50;;;;;;;20.05;3.97;;;5.60;73.50;;;;;;5058061;28;20115;-82
2022/01/28 03:50:16;;;;;;;19.80;3.70;;;5.60;73.40;;;;;;5068561;28;20053;-82
2022/01/28 03:52:41;;;;;;;15.32;3.13;;;5.60;73.40;;;;;;5070342;28;20041;-82
2022/01/28 03:55:08;;;;;;;14.13;3.63;;;5.60;73.30;;;;;;5036940;28;20041;-82
2022/01/28 03:57:33;;;;;;;13.52;3.35;;;5.60;73.30;;;;;;5065085;28;20059;-81
2022/01/28 03:59:59;;;;;;;16.15;3.47;;;5.60;73.20;;;;;;5058006;28;20504;-82
2022/01/28 04:02:29;;;;;;;19.95;4.35;;;5.60;73.10;;;;;;5071694;28;20123;-82
2022/01/28 04:12:53;;;;;;;17.80;5.35;;;5.60;73.00;;;;;;5073826;28;20511;-82
2022/01/28 04:17:45;;;;;;;22.13;6.95;;;5.60;73.00;;;;;;5056131;28;20119;-82
2022/01/28 04:20:11;;;;;;;23.23;6.20;;;5.60;73.00;;;;;;5086166;28;20040;-82
2022/01/28 04:22:36;;;;;;;26.23;7.40;;;5.50;72.90;;;;;;5094125;28;20085;-82
2022/01/28 04:25:03;;;;;;;21.75;6.95;;;5.50;72.90;;;;;;5063905;28;20103;-82
2022/01/28 04:27:28;;;;;;;22.60;6.15;;;5.50;72.80;;;;;;5071750;28;20052;-82
2022/01/28 04:29:54;;;;;;;26.35;6.25;;;5.50;72.70;;;;;;5077623;28;20459;-83
2022/01/28 04:32:20;;;;;;;23.70;6.03;;;5.50;72.60;;;;;;5055998;28;20040;-82
2022/01/28 04:34:46;;;;;;;24.75;6.88;;;5.50;72.60;;;;;;5068083;28;20051;-82
2022/01/28 04:40:10;;;;;;;22.67;6.63;;;5.50;72.30;;;;;;5070417;28;20056;-82
2022/01/28 04:45:33;;;;;;;20.77;6.22;;;5.50;72.30;;;;;;5066617;28;20492;-82
2022/01/28 04:48:10;;;;;;;18.45;3.50;;;5.50;72.20;;;;;;5046792;28;20049;-82
2022/01/28 04:50:48;;;;;;;17.63;3.45;;;5.50;72.20;;;;;;5073174;28;20049;-81
2022/01/28 04:53:31;;;;;;;20.40;3.83;;;5.50;72.10;;;;;;5058197;28;20048;-82
2022/01/28 05:27:15;;;;;;;19.42;3.50;;;5.50;71.20;;;;;;4939551;29;20059;-82
2022/01/28 05:29:40;;;;;;;19.95;4.60;;;5.50;71.20;;;;;;4940722;29;20092;-81
2022/01/28 05:32:07;;;;;;;17.02;3.63;;;5.80;71.30;;;;;;4947011;29;20055;-81
2022/01/28 05:34:33;;;;;;;18.83;3.10;;;5.50;70.90;;;;;;4919868;29;20055;-81
2022/01/28 05:36:59;;;;;;;20.85;3.63;;;5.60;71.00;;;;;;4938869;29;20396;-81
2022/01/28 05:39:24;;;;;;;16.33;3.78;;;5.60;71.00;;;;;;4959265;28;20047;-82
2022/01/28 05:41:51;;;;;;;20.05;3.45;;;5.50;70.80;;;;;;5039262;28;20061;-82
2022/01/28 05:44:18;;;;;;;18.88;4.72;;;5.60;70.70;;;;;;5052478;28;20107;-81
2022/01/28 05:46:45;;;;;;;17.40;3.42;;;5.60;70.60;;;;;;5079268;28;20109;-82
2022/01/28 05:49:10;;;;;;;21.00;3.78;;;5.60;70.60;;;;;;5074161;28;20056;-81
2022/01/28 05:51:36;;;;;;;23.23;4.45;;;5.60;70.50;;;;;;5064950;28;20411;-82
2022/01/28 05:54:02;;;;;;;20.48;4.35;;;5.60;70.30;;;;;;5076944;28;20040;-82
2022/01/28 05:56:28;;;;;;;17.17;3.72;;;5.60;70.30;;;;;;5060172;28;20083;-82
2022/01/28 05:58:55;;;;;;;16.33;3.55;;;5.60;70.40;;;;;;5043044;28;20056;-82
2022/01/28 06:01:20;;;;;;;22.70;4.40;;;5.60;70.30;;;;;;5067838;28;20048;-82
2022/01/28 06:03:47;;;;;;;18.90;4.35;;;5.60;70.30;;;;;;5069308;28;20054;-82
2022/01/28 06:06:20;;;;;;;19.65;3.95;;;5.60;70.30;;;;;;5076436;28;20098;-82
2022/01/28 06:08:51;;;;;;;24.08;4.28;;;5.50;70.20;;;;;;5076969;28;20044;-82
2022/01/28 06:11:17;;;;;;;20.10;3.47;;;5.60;70.20;;;;;;5076481;28;20053;-82
2022/01/28 06:13:43;;;;;;;18.27;3.95;;;5.50;70.10;;;;;;5074135;28;20100;-81
2022/01/28 06:16:10;;;;;;;20.65;4.28;;;5.50;70.00;;;;;;5061034;28;20068;-82
2022/01/28 06:18:36;;;;;;;27.40;4.55;;;5.50;70.00;;;;;;5076748;28;20422;-84
2022/01/28 06:21:03;;;;;;;18.17;4.57;;;5.50;69.80;;;;;;5065491;28;20085;-82
2022/01/28 06:23:29;;;;;;;26.20;5.72;;;5.40;69.70;;;;;;5075638;28;20045;-82
2022/01/28 06:25:55;;;;;;;22.92;5.47;;;5.40;69.60;;;;;;5067972;28;20036;-83
2022/01/28 06:28:21;;;;;;;21.35;4.97;;;5.30;69.60;;;;;;5056978;28;20554;-82
2022/01/28 06:30:46;;;;;;;24.25;6.13;;;5.30;69.70;;;;;;5058321;28;20040;-82
2022/01/28 06:33:13;;;;;;;26.90;7.78;;;5.30;69.70;;;;;;5058550;28;20114;-83
2022/01/28 06:35:43;;;;;;;16.85;4.55;;;5.30;69.60;;;;;;5077866;28;20033;-85
2022/01/28 06:38:09;;;;;;;20.08;3.88;;;5.30;70.20;;;;;;5034343;28;20044;-86
2022/01/28 06:40:35;;;;;;;19.42;4.47;;;5.30;69.90;;;;;;5022177;28;20037;-86
2022/01/28 06:43:00;;;;;;;28.55;8.65;;;5.20;69.80;;;;;;5073449;28;20036;-85
2022/01/28 06:45:26;;;;;;;31.58;8.48;;;5.60;69.80;;;;;;5077599;28;20115;-86
2022/01/28 06:47:52;;;;;;;28.42;8.50;;;5.20;69.30;;;;;;5075532;28;20042;-86
2022/01/28 06:50:17;;;;;;;29.55;8.73;;;5.10;69.10;;;;;;5041524;28;20087;-85
2022/01/28 06:52:44;;;;;;;43.25;13.57;;;5.10;69.10;;;;;;5063096;28;20075;-86
2022/01/28 06:55:12;;;;;;;44.83;15.07;;;5.10;69.10;;;;;;5075202;28;20052;-86
2022/01/28 06:57:38;;;;;;;42.53;13.45;;;5.10;69.10;;;;;;5075233;28;20044;-86
2022/01/28 07:00:19;;;;;;;31.50;9.27;;;5.00;69.10;;;;;;5076298;28;20070;-85
2022/01/28 07:02:46;;;;;;;17.52;4.28;;;4.90;68.90;;;;;;5075681;28;20064;-86
2022/01/28 07:05:12;;;;;;;16.80;3.95;;;4.90;69.00;;;;;;5057098;28;20133;-86
2022/01/28 07:07:37;;;;;;;16.58;3.70;;;4.80;68.90;;;;;;5080019;28;20079;-86
2022/01/28 07:10:03;;;;;;;19.77;4.30;;;4.80;68.90;;;;;;5074779;28;20127;-86
2022/01/28 07:12:29;;;;;;;17.65;3.47;;;4.80;69.00;;;;;;5076014;28;20044;-85
2022/01/28 07:14:55;;;;;;;15.23;3.72;;;4.80;69.10;;;;;;5074528;28;20044;-86
2022/01/28 07:17:21;;;;;;;15.05;3.28;;;4.70;69.00;;;;;;5074549;28;20048;-86
2022/01/28 07:19:46;;;;;;;21.42;3.25;;;4.60;69.00;;;;;;5057824;28;20092;-86
2022/01/28 07:22:12;;;;;;;14.88;2.53;;;5.10;69.40;;;;;;5057769;28;20045;-86
2022/01/28 07:24:38;;;;;;;14.65;3.42;;;4.60;69.10;;;;;;5078225;28;20455;-85
2022/01/28 07:27:04;;;;;;;14.85;2.90;;;4.50;69.10;;;;;;5057435;28;20131;-86
2022/01/28 07:29:32;;;;;;;24.95;4.00;;;4.40;69.00;;;;;;5039414;28;20037;-86
2022/01/28 07:31:58;;;;;;;25.00;3.53;;;4.40;69.00;;;;;;5037602;28;20049;-86
2022/01/28 07:34:24;;;;;;;18.48;4.05;;;4.30;69.10;;;;;;5044517;28;20078;-86
2022/01/28 07:36:50;;;;;;;15.70;3.00;;;4.30;69.20;;;;;;5074764;28;20111;-87
2022/01/28 07:39:16;;;;;;;13.90;2.53;;;4.20;69.20;;;;;;5072703;28;20377;-86
2022/01/28 07:41:42;;;;;;;19.05;3.60;;;4.10;69.30;;;;;;5058037;28;20044;-86
2022/01/28 07:44:08;;;;;;;21.50;3.67;;;4.50;69.60;;;;;;5059862;28;20460;-86
2022/01/28 07:46:34;;;;;;;17.20;4.18;;;4.20;69.60;;;;;;5054369;28;20374;-86
2022/01/28 07:49:00;;;;;;;14.00;3.67;;;4.00;69.60;;;;;;5054386;28;20052;-87
2022/01/28 07:51:26;;;;;;;15.60;3.20;;;4.30;69.90;;;;;;5076345;28;20080;-86
2022/01/28 07:53:52;;;;;;;19.92;3.70;;;3.90;69.80;;;;;;5057022;28;20499;-86
2022/01/28 07:56:18;;;;;;;16.88;2.95;;;4.20;70.10;;;;;;5052046;28;20055;-87
2022/01/28 07:58:44;;;;;;;14.77;3.13;;;4.10;70.10;;;;;;5076771;28;20040;-87
2022/01/28 08:01:09;;;;;;;15.63;3.15;;;3.80;70.00;;;;;;5086274;28;20047;-87
2022/01/28 08:03:36;;;;;;;16.48;3.22;;;3.80;70.10;;;;;;5117100;28;20016;-87
2022/01/28 08:06:02;;;;;;;20.20;3.35;;;4.10;70.40;;;;;;5097418;28;20048;-87
2022/01/28 08:08:28;;;;;;;21.67;3.47;;;3.70;70.20;;;;;;5068048;28;20044;-87
2022/01/28 08:10:53;;;;;;;19.27;4.60;;;3.70;70.30;;;;;;5075716;28;20487;-87
2022/01/28 08:13:19;;;;;;;12.27;2.97;;;3.70;70.40;;;;;;5073823;28;20040;-87
2022/01/28 08:15:45;;;;;;;12.90;3.08;;;3.60;70.50;;;;;;5073626;28;20407;-87
2022/01/28 08:18:11;;;;;;;19.60;3.75;;;3.60;70.70;;;;;;5074784;28;20051;-87
2022/01/28 08:20:38;;;;;;;21.38;4.95;;;3.60;70.90;;;;;;5074768;28;20510;-87
2022/01/28 08:23:04;;;;;;;21.73;3.72;;;3.60;71.00;;;;;;5060997;28;20151;-87
2022/01/28 08:25:33;;;;;;;20.95;5.05;;;3.60;71.50;;;;;;5056929;28;20075;-87
2022/01/28 08:27:59;;;;;;;18.92;4.22;;;3.50;71.60;;;;;;5068026;28;20372;-87
2022/01/28 08:30:26;;;;;;;18.75;4.85;;;3.60;71.20;;;;;;5076035;28;20052;-87
2022/01/28 08:32:52;;;;;;;18.45;3.65;;;3.90;71.50;;;;;;5093123;28;20028;-87
2022/01/28 08:35:24;;;;;;;21.10;4.15;;;4.00;71.60;;;;;;5062441;28;20045;-87
2022/01/28 08:37:50;;;;;;;17.70;3.60;;;3.90;71.60;;;;;;5048145;28;20045;-87
2022/01/28 08:40:17;;;;;;;23.00;4.25;;;4.20;71.70;;;;;;5066870;28;20086;-86
2022/01/28 08:42:42;;;;;;;25.92;4.35;;;4.10;71.70;;;;;;5038036;28;20386;-87
2022/01/28 08:45:09;;;;;;;13.50;2.75;;;4.30;71.80;;;;;;5094702;28;20040;-87
2022/01/28 08:47:35;;;;;;;12.73;3.10;;;4.10;71.60;;;;;;5074069;28;20123;-86
2022/01/28 08:50:00;;;;;;;18.48;3.92;;;4.10;71.60;;;;;;5053649;28;20479;-86
2022/01/28 08:52:26;;;;;;;22.60;3.75;;;4.20;71.70;;;;;;5054189;28;20521;-86
2022/01/28 08:54:52;;;;;;;20.45;3.53;;;4.20;71.80;;;;;;5049611;28;20044;-86
2022/01/28 08:57:17;;;;;;;20.92;3.88;;;4.50;71.90;;;;;;5058475;28;20498;-86
2022/01/28 08:59:44;;;;;;;18.88;3.67;;;4.70;72.00;;;;;;5048630;28;20098;-86
2022/01/28 09:02:10;;;;;;;18.00;4.03;;;4.90;72.00;;;;;;5076413;28;20044;-86
2022/01/28 09:04:36;;;;;;;20.70;3.45;;;4.90;71.90;;;;;;5075354;28;20376;-86
2022/01/28 09:07:02;;;;;;;24.17;4.63;;;4.90;71.80;;;;;;5076140;28;20503;-86
2022/01/28 09:09:29;;;;;;;23.30;3.90;;;4.70;71.60;;;;;;5039332;28;20419;-85
2022/01/28 09:12:07;;;;;;;21.52;4.00;;;4.80;71.60;;;;;;5072968;28;20435;-85
2022/01/28 09:14:34;;;;;;;25.33;4.13;;;4.80;71.60;;;;;;5073954;28;20049;-86
2022/01/28 09:17:00;;;;;;;18.98;4.72;;;4.90;71.90;;;;;;5089018;28;20058;-86
2022/01/28 09:19:25;;;;;;;21.98;3.63;;;5.30;72.20;;;;;;5073980;28;20123;-85
2022/01/28 09:21:51;;;;;;;21.05;4.32;;;5.10;72.50;;;;;;5060876;28;20101;-86
2022/01/28 09:24:17;;;;;;;24.02;3.22;;;5.20;72.10;;;;;;5061790;28;20130;-85
2022/01/28 09:26:43;;;;;;;22.77;4.38;;;5.20;72.00;;;;;;5073854;28;20040;-82
2022/01/28 09:29:09;;;;;;;21.13;3.47;;;5.40;72.00;;;;;;5073665;28;20127;-83
2022/01/28 09:31:35;;;;;;;25.33;5.10;;;5.40;72.00;;;;;;5053486;28;20490;-84
2022/01/28 09:34:01;;;;;;;26.75;5.60;;;5.50;72.00;;;;;;5040115;28;20104;-84
2022/01/28 09:36:27;;;;;;;19.00;5.80;;;5.60;71.80;;;;;;5042956;28;20045;-84
2022/01/28 09:38:53;;;;;;;22.35;4.70;;;5.90;71.70;;;;;;5075642;28;20049;-83
2022/01/28 09:41:19;;;;;;;25.52;7.00;;;5.80;71.40;;;;;;5058630;28;20079;-85
2022/01/28 09:43:46;;;;;;;26.65;5.07;;;5.90;71.20;;;;;;5092967;28;20044;-85
2022/01/28 09:46:13;;;;;;;21.23;5.57;;;6.10;71.10;;;;;;5083884;28;20131;-83
2022/01/28 09:48:39;;;;;;;25.48;5.00;;;6.00;70.70;;;;;;5070761;28;20041;-84
2022/01/28 09:51:05;;;;;;;24.30;4.88;;;6.10;70.60;;;;;;5062288;28;20045;-83
2022/01/28 09:53:31;;;;;;;32.10;5.40;;;6.50;70.70;;;;;;5072614;28;20435;-82
2022/01/28 09:55:58;;;;;;;17.98;4.70;;;6.10;70.50;;;;;;5055743;28;20182;-82
2022/01/28 09:58:24;;;;;;;23.90;5.63;;;6.20;70.40;;;;;;5074892;28;20174;-81
2022/01/28 10:00:51;;;;;;;22.67;5.15;;;6.20;70.30;;;;;;5057121;28;20040;-81
2022/01/28 10:03:18;;;;;;;23.63;5.90;;;6.20;70.30;;;;;;5072283;28;20041;-82
2022/01/28 10:05:47;;;;;;;25.58;5.10;;;6.30;70.10;;;;;;5074057;28;20048;-82
2022/01/28 10:08:21;;;;;;;24.25;5.47;;;6.30;70.00;;;;;;5073537;28;20052;-81
2022/01/28 10:11:03;;;;;;;21.58;5.00;;;6.30;69.90;;;;;;5053909;28;20045;-78
2022/01/28 10:13:42;;;;;;;24.23;4.85;;;6.30;69.90;;;;;;5058958;28;20161;-79
2022/01/28 10:16:13;;;;;;;25.38;4.70;;;6.30;70.00;;;;;;5073381;28;20044;-79
2022/01/28 10:18:54;;;;;;;26.75;4.88;;;6.40;70.00;;;;;;5073693;28;20365;-79
2022/01/28 10:21:38;;;;;;;25.58;6.47;;;6.40;70.00;;;;;;5073474;28;20380;-80
2022/01/28 10:24:22;;;;;;;30.25;6.63;;;6.40;70.10;;;;;;5067870;28;20044;-79
2022/01/28 10:26:56;;;;;;;19.17;5.47;;;6.40;70.10;;;;;;5078464;28;20059;-80
2022/01/28 10:29:30;;;;;;;25.35;5.38;;;6.40;70.20;;;;;;5097454;28;20376;-80
2022/01/28 10:31:57;;;;;;;22.20;5.07;;;6.50;70.30;;;;;;5079197;28;20089;-80
2022/01/28 10:34:34;;;;;;;17.55;3.60;;;6.50;70.20;;;;;;5091466;28;20040;-80
2022/01/28 10:37:18;;;;;;;17.58;4.25;;;6.50;70.20;;;;;;5043499;28;20170;-80
2022/01/28 10:40:01;;;;;;;18.98;4.18;;;6.50;70.10;;;;;;5066324;28;20471;-79
2022/01/28 10:42:41;;;;;;;17.08;3.72;;;6.50;69.90;;;;;;5053011;28;20083;-80
2022/01/28 10:45:11;;;;;;;18.90;4.05;;;6.60;70.30;;;;;;5064939;28;20495;-80
2022/01/28 10:47:50;;;;;;;23.92;4.15;;;6.60;69.80;;;;;;5066009;28;20040;-79
2022/01/28 10:50:38;;;;;;;18.63;4.43;;;6.60;69.70;;;;;;5059749;28;20048;-80
2022/01/28 10:53:16;;;;;;;17.38;3.53;;;6.70;69.10;;;;;;5057474;28;20408;-80
2022/01/28 10:55:48;;;;;;;20.50;3.97;;;6.70;69.30;;;;;;5072417;28;20067;-80
2022/01/28 10:58:19;;;;;;;18.92;4.78;;;6.80;69.10;;;;;;5075789;28;20119;-80
2022/01/28 11:00:47;;;;;;;23.50;5.28;;;6.80;69.10;;;;;;5084319;28;20081;-80
2022/01/28 11:03:16;;;;;;;20.77;4.78;;;6.80;69.00;;;;;;5076076;28;20399;-80
2022/01/28 11:05:43;;;;;;;21.48;4.38;;;6.90;68.90;;;;;;5058181;28;20181;-79
2022/01/28 11:08:11;;;;;;;26.30;6.20;;;6.90;68.80;;;;;;5058068;28;20065;-79
2022/01/28 11:10:38;;;;;;;22.85;5.05;;;6.90;68.90;;;;;;5076165;28;20101;-80
2022/01/28 11:13:04;;;;;;;23.50;4.05;;;7.00;68.80;;;;;;5057950;28;20131;-80
2022/01/28 11:15:31;;;;;;;16.83;3.83;;;7.00;68.70;;;;;;5070571;28;20202;-80
2022/01/28 11:17:59;;;;;;;21.80;4.22;;;7.10;69.10;;;;;;5082769;28;20041;-80
2022/01/28 11:20:31;;;;;;;24.73;4.30;;;7.10;68.40;;;;;;5075670;28;20048;-79
2022/01/28 11:23:17;;;;;;;17.55;4.55;;;7.20;68.40;;;;;;5072187;28;20055;-80
2022/01/28 11:26:22;;;;;;;14.30;3.75;;;7.20;68.30;;;;;;5094921;28;20124;-80
2022/01/28 11:28:57;;;;;;;18.70;3.50;;;7.30;68.30;;;;;;5068468;28;20044;-79
2022/01/28 11:31:55;;;;;;;19.42;3.88;;;7.30;68.30;;;;;;5057766;28;20044;-81
2022/01/28 11:34:27;;;;;;;18.83;3.92;;;7.30;68.10;;;;;;5058199;28;20040;-81
2022/01/28 11:37:13;;;;;;;17.75;4.28;;;7.30;67.90;;;;;;5075844;28;20048;-80
2022/01/28 11:39:42;;;;;;;19.23;4.30;;;7.40;67.70;;;;;;4958984;28;20098;-80
2022/01/28 11:42:10;;;;;;;8.25;2.85;;;7.40;67.90;;;;;;4973902;28;20434;-81
2022/01/28 11:44:43;;;;;;;18.88;4.13;;;7.40;67.80;;;;;;4985747;28;20375;-80
2022/01/28 11:47:22;;;;;;;20.63;4.07;;;7.40;67.70;;;;;;4964031;28;20452;-80
2022/01/28 11:49:56;;;;;;;18.83;3.85;;;7.50;67.60;;;;;;5000154;28;20137;-81
2022/01/28 11:52:25;;;;;;;16.63;3.30;;;7.50;67.60;;;;;;4974301;28;20051;-80
2022/01/28 11:54:51;;;;;;;15.48;3.67;;;7.50;67.60;;;;;;4975442;28;20042;-80
2022/01/28 11:57:17;;;;;;;21.08;3.40;;;7.60;67.70;;;;;;4994366;28;20995;-80
2022/01/28 11:59:45;;;;;;;20.42;3.30;;;7.50;67.70;;;;;;4979614;28;20137;-80
2022/01/28 12:02:15;;;;;;;16.05;3.22;;;7.60;67.80;;;;;;4977319;28;20054;-80
2022/01/28 12:04:43;;;;;;;16.48;3.72;;;7.60;67.70;;;;;;4993225;28;20513;-80
2022/01/28 12:07:29;;;;;;;16.27;4.07;;;7.70;67.90;;;;;;4977823;28;20069;-81
2022/01/28 12:09:56;;;;;;;19.67;4.43;;;7.60;67.70;;;;;;4985486;28;20046;-79
2022/01/28 12:12:41;;;;;;;17.77;3.92;;;7.60;67.60;;;;;;4978953;28;20061;-79
2022/01/28 12:15:13;;;;;;;17.73;5.57;;;7.60;67.40;;;;;;4992959;28;20544;-79
2022/01/28 12:17:48;;;;;;;15.77;4.70;;;7.60;67.40;;;;;;5070048;28;20055;-79
2022/01/28 12:20:22;;;;;;;16.65;4.18;;;7.60;67.30;;;;;;5082886;28;20487;-85
2022/01/28 12:23:02;;;;;;;21.70;4.20;;;7.60;67.40;;;;;;5066668;28;20044;-80
2022/01/28 12:25:43;;;;;;;18.00;3.22;;;7.60;67.00;;;;;;5079802;28;20049;-81
2022/01/28 12:28:33;;;;;;;19.90;4.53;;;7.70;67.10;;;;;;5079865;28;20068;-80
2022/01/28 12:31:03;;;;;;;19.23;2.92;;;7.70;66.80;;;;;;5077801;28;20071;-82
2022/01/28 12:33:31;;;;;;;19.48;3.28;;;7.70;66.90;;;;;;5074761;28;20048;-82
2022/01/28 12:36:06;;;;;;;15.93;3.30;;;7.70;66.90;;;;;;5074619;28;20052;-81
2022/01/28 12:38:54;;;;;;;15.30;3.45;;;7.70;67.00;;;;;;5056586;28;20055;-81
2022/01/28 12:41:23;;;;;;;22.30;3.40;;;7.70;67.10;;;;;;5052031;28;20032;-81
2022/01/28 12:43:48;;;;;;;20.40;2.95;;;7.70;66.80;;;;;;5091964;28;20044;-81
2022/01/28 12:46:15;;;;;;;20.25;3.00;;;7.70;66.60;;;;;;5093450;28;20047;-82
2022/01/28 12:48:55;;;;;;;14.90;3.28;;;7.70;66.60;;;;;;5076285;28;20387;-81
2022/01/28 12:51:22;;;;;;;13.70;3.10;;;7.70;66.40;;;;;;5074154;28;20554;-81
2022/01/28 12:53:54;;;;;;;17.08;3.83;;;7.70;66.60;;;;;;5094017;28;20467;-82
2022/01/28 12:56:33;;;;;;;13.18;2.88;;;7.70;66.80;;;;;;5084823;28;20044;-82
2022/01/28 12:58:59;;;;;;;16.23;3.30;;;7.70;66.80;;;;;;5073974;28;20075;-82
2022/01/28 13:01:25;;;;;;;15.45;3.53;;;7.70;66.80;;;;;;5058729;28;20119;-82
2022/01/28 13:04:03;;;;;;;18.88;3.40;;;7.70;66.60;;;;;;5056212;28;20543;-82
2022/01/28 13:09:01;;;;;;;23.35;3.78;;;7.70;66.20;;;;;;5074028;28;20098;-84
2022/01/28 13:11:28;;;;;;;19.73;2.60;;;7.70;66.00;;;;;;5071688;28;20032;-84
2022/01/28 13:13:57;;;;;;;18.10;3.30;;;7.70;66.10;;;;;;5063294;28;20099;-83
2022/01/28 13:16:37;;;;;;;21.52;4.18;;;7.70;66.00;;;;;;5047618;28;20074;-85
2022/01/28 13:19:05;;;;;;;15.88;3.42;;;7.70;66.10;;;;;;5061459;28;20402;-86
2022/01/28 13:21:32;;;;;;;13.82;3.00;;;7.70;66.30;;;;;;5094243;28;20040;-86
2022/01/28 13:24:04;;;;;;;13.77;3.17;;;7.90;65.90;;;;;;5071331;28;20082;-86
2022/01/28 13:26:29;;;;;;;11.75;2.92;;;7.70;66.10;;;;;;5056873;28;20102;-86
2022/01/28 13:29:09;;;;;;;13.32;2.58;;;7.70;66.20;;;;;;5054881;28;20057;-86
2022/01/28 13:31:36;;;;;;;15.20;2.92;;;8.10;65.90;;;;;;5055756;28;20051;-86
2022/01/28 13:34:05;;;;;;;12.32;2.20;;;7.70;65.70;;;;;;5058113;28;20037;-85
2022/01/28 13:36:52;;;;;;;11.35;2.65;;;8.20;66.10;;;;;;5039443;28;20041;-85
2022/01/28 13:39:21;;;;;;;11.98;2.42;;;8.00;66.00;;;;;;5074948;28;20495;-85
2022/01/28 13:41:51;;;;;;;18.15;3.58;;;7.80;66.00;;;;;;5076198;28;20574;-88
2022/01/28 13:44:27;;;;;;;12.75;3.15;;;8.10;66.40;;;;;;5075301;28;20050;-85
2022/01/28 13:47:01;;;;;;;16.85;3.10;;;7.80;66.00;;;;;;5075198;28;20059;-86
2022/01/28 13:49:32;;;;;;;17.60;3.58;;;7.80;66.00;;;;;;5095167;28;20056;-86
2022/01/28 13:52:10;;;;;;;17.05;2.88;;;7.80;66.20;;;;;;5095738;28;20127;-86
2022/01/28 13:54:36;;;;;;;13.50;2.88;;;7.80;66.30;;;;;;5076933;28;20062;-87
2022/01/28 13:57:04;;;;;;;15.48;3.63;;;7.70;66.50;;;;;;5060122;28;20523;-87
2022/01/28 13:59:32;;;;;;;16.33;2.50;;;7.70;66.60;;;;;;5059986;28;20123;-87
2022/01/28 14:01:59;;;;;;;19.55;3.28;;;8.00;66.70;;;;;;5041806;28;20396;-86
2022/01/28 14:04:44;;;;;;;10.60;2.38;;;7.70;66.50;;;;;;5056893;28;20480;-85
2022/01/28 14:07:21;;;;;;;11.80;2.67;;;7.70;66.50;;;;;;5059933;28;20483;-86
2022/01/28 14:09:50;;;;;;;15.32;3.00;;;8.00;66.70;;;;;;5065063;28;20487;-86
2022/01/28 14:12:35;;;;;;;14.35;2.30;;;7.70;66.60;;;;;;5076880;28;20051;-86
2022/01/28 14:15:14;;;;;;;13.77;3.03;;;7.70;66.60;;;;;;5039090;28;20041;-86
2022/01/28 14:17:41;;;;;;;14.77;3.20;;;7.70;66.70;;;;;;5073527;28;20584;-86
2022/01/28 14:20:08;;;;;;;14.35;4.03;;;7.80;66.80;;;;;;5079081;28;20044;-85
2022/01/28 14:22:34;;;;;;;14.52;3.33;;;7.70;66.80;;;;;;5062313;28;20499;-85
2022/01/28 14:25:00;;;;;;;13.60;3.42;;;8.00;67.00;;;;;;5080627;28;20074;-85
2022/01/28 14:29:55;;;;;;;17.05;4.15;;;7.60;67.10;;;;;;5076581;28;20041;-85
2022/01/28 14:32:23;;;;;;;18.15;3.47;;;7.60;67.30;;;;;;5059363;28;20064;-85
2022/01/28 14:34:53;;;;;;;17.48;4.10;;;7.70;67.50;;;;;;5059158;28;20056;-84
2022/01/28 14:37:20;;;;;;;16.55;3.75;;;7.90;67.60;;;;;;5043907;28;20481;-85